Chicago Midway International Airport
KMDW : rendu visible

Aérodrome :











RETROUVEZ-NOUS SUR...

 
LOGIN :

S'inscrire | Disclaimer

   EN    FR    IT 

 









Légende :    VFR   VFR Marginal   IFR   IFR Intensif   IFR Très Intensif
Visi : 
Plafond : 
>= 8 km
>= 3000ft
5 à 8 km
1000 à 3000 ft
1500m à 5 km
500 à 1000 ft
800 à 1500m
200 à 500 ft
< 800m
< 200 ft
Symboles :   Orages  Brouillard  Fortes neiges  Fortes précipitations  Vent > 20 kt






- Altitude de l'aérodrome : 620 ft
- Code IATA : MDW


KMDW - Chicago Midway International

DERNIER METAR :
  • 300253Z 31008KT 10SM FEW060 17/07 A3009 RMK AO2 SLP185 T01720072 51020 $

METARs EXPIRÉS :
  • 300153Z 33009KT 10SM FEW060 18/08 A3007 RMK AO2 SLP176 T01780078 $
  • 300053Z 33011G19KT 10SM BKN060 19/08 A3006 RMK AO2 SLP173 T01890083 $

TAF KMDW
Valide du 30 à 00h jusqu'au 31 à 06h UTC


292320Z 3000/3106 32012KT P6SM BKN060
FM300100 32008KT P6SM BKN050
FM301500 33009KT P6SM BKN050
FM302000 04010KT P6SM SCT060
FM310200 02007KT P6SM SKC
FIR KZAU / Amérique du Nord



MET'MAP, la Météo Aéronautique d'un coup d'oeil ! - Copyright ORBIFLY Décembre 2007 - Disclaimer

ORBIFLY MET'MAP TEAM :

Programmation & Développement : Alexandra Zaïnal
Sur une idée originale de : Baudouin d'Aumeries
Assistance à la programmation : Marc-Olivier Méhu
Soutien technique & logistique : Manuel Goepfert

Contact : metmap@orbifly.com




SOURCES & CREDITS :

   NOAA       Earth
Advisory